createdAt,value
2023-03-13T00:01:15.721Z,75.93
2023-03-13T00:03:48.394Z,75.79
2023-03-13T00:06:21.215Z,76.04
2023-03-13T00:08:53.667Z,76.67
2023-03-13T00:11:27.896Z,76.70
2023-03-13T00:14:01.412Z,78.00
2023-03-13T00:16:35.779Z,77.42
2023-03-13T00:19:09.306Z,77.01
2023-03-13T00:21:42.398Z,76.92
2023-03-13T00:24:15.281Z,76.30
2023-03-13T00:26:48.352Z,76.95
2023-03-13T00:29:20.719Z,77.71
2023-03-13T00:31:53.287Z,77.45
2023-03-13T00:34:27.605Z,77.35
2023-03-13T00:37:00.687Z,76.71
2023-03-13T00:39:33.627Z,76.32
2023-03-13T00:42:07.860Z,76.64
2023-03-13T00:44:40.203Z,77.04
2023-03-13T00:47:13.152Z,77.85
2023-03-13T00:49:45.694Z,78.28
2023-03-13T00:52:20.981Z,78.33
2023-03-13T00:54:51.923Z,77.43
2023-03-13T00:57:24.431Z,77.94
2023-03-13T00:59:56.852Z,77.73
2023-03-13T01:02:31.968Z,78.76
2023-03-13T01:05:06.081Z,78.93
2023-03-13T01:07:38.747Z,78.37
2023-03-13T01:10:12.755Z,78.73
2023-03-13T01:12:45.418Z,79.92
2023-03-13T01:15:19.707Z,79.32
2023-03-13T01:17:53.767Z,79.51
2023-03-13T01:20:26.300Z,79.88
2023-03-13T01:22:58.885Z,80.11
2023-03-13T01:25:34.012Z,80.17
2023-03-13T01:28:06.877Z,80.68
2023-03-13T01:30:39.346Z,80.34
2023-03-13T01:33:11.764Z,80.05
2023-03-13T01:35:44.676Z,80.11
2023-03-13T01:38:18.086Z,80.56
2023-03-13T01:40:51.296Z,80.94
2023-03-13T01:43:26.889Z,80.19
2023-03-13T01:46:13.755Z,80.28
2023-03-13T01:48:56.716Z,81.11
2023-03-13T01:51:31.899Z,81.34
2023-03-13T01:54:09.429Z,81.76
2023-03-13T01:56:46.949Z,81.66
2023-03-13T01:59:24.680Z,81.10
2023-03-13T02:02:01.743Z,81.34
2023-03-13T02:04:40.727Z,81.47
2023-03-13T02:07:17.571Z,81.55
2023-03-13T02:09:54.804Z,81.00
2023-03-13T02:12:31.799Z,81.09
2023-03-13T02:15:09.351Z,81.72
2023-03-13T02:17:43.836Z,81.85
2023-03-13T02:20:22.422Z,82.66
2023-03-13T02:23:03.943Z,83.03
2023-03-13T02:25:44.073Z,83.22
2023-03-13T02:28:20.715Z,83.27
2023-03-13T02:30:56.668Z,83.61
2023-03-13T02:33:33.518Z,83.31
2023-03-13T02:36:07.789Z,82.88
2023-03-13T02:38:46.728Z,82.79
2023-03-13T02:41:22.220Z,82.32
2023-03-13T02:43:54.853Z,82.33
2023-03-13T02:46:27.328Z,82.20
2023-03-13T02:49:02.933Z,82.77
2023-03-13T02:51:41.236Z,82.42
2023-03-13T02:54:18.293Z,82.21
2023-03-13T02:56:53.447Z,82.60
2023-03-13T02:59:26.445Z,83.07
2023-03-13T03:01:58.967Z,82.88
2023-03-13T03:04:32.123Z,82.91
2023-03-13T03:07:04.717Z,83.36
2023-03-13T03:09:37.117Z,83.77
2023-03-13T03:12:13.146Z,83.48
2023-03-13T03:14:45.822Z,84.13
2023-03-13T03:17:19.520Z,84.38
2023-03-13T03:19:51.943Z,85.19
2023-03-13T03:22:25.765Z,85.33
2023-03-13T03:24:58.226Z,85.32
2023-03-13T03:27:32.101Z,85.98
2023-03-13T03:30:05.521Z,87.36
2023-03-13T03:32:38.697Z,87.22
2023-03-13T03:35:11.551Z,87.48
2023-03-13T03:37:44.057Z,88.48
2023-03-13T03:40:21.920Z,89.13
2023-03-13T03:42:54.501Z,89.75
2023-03-13T03:45:27.069Z,89.17
2023-03-13T03:48:01.864Z,88.66
2023-03-13T03:50:38.470Z,88.76
2023-03-13T03:53:11.376Z,89.85
2023-03-13T03:55:44.067Z,90.45
2023-03-13T03:58:16.628Z,91.01
2023-03-13T04:01:11.400Z,91.78
2023-03-13T04:03:44.292Z,91.41
2023-03-13T04:06:18.331Z,90.99
2023-03-13T04:08:51.507Z,90.72
2023-03-13T04:11:26.454Z,89.66
2023-03-13T04:14:00.769Z,90.29
2023-03-13T04:16:33.458Z,90.97
2023-03-13T04:19:10.298Z,90.56
2023-03-13T04:21:42.789Z,91.05
2023-03-13T04:24:19.653Z,90.96
2023-03-13T04:26:52.247Z,90.56
2023-03-13T04:29:24.856Z,89.98
2023-03-13T04:32:05.034Z,89.54
2023-03-13T04:34:57.823Z,89.38
2023-03-13T04:37:50.978Z,89.26
2023-03-13T04:40:34.582Z,89.24
2023-03-13T04:43:27.308Z,89.59
2023-03-13T04:46:11.924Z,89.47
2023-03-13T04:49:07.092Z,88.74
2023-03-13T04:52:13.606Z,88.80
2023-03-13T04:55:24.481Z,88.03
2023-03-13T04:58:20.149Z,87.52
2023-03-13T05:01:13.019Z,87.72
2023-03-13T05:04:09.757Z,86.73
2023-03-13T05:07:05.308Z,87.16
2023-03-13T05:09:37.945Z,88.05
2023-03-13T05:12:36.557Z,88.54
2023-03-13T05:15:32.156Z,88.60
2023-03-13T05:18:25.796Z,89.02
2023-03-13T05:21:11.855Z,88.73
2023-03-13T05:24:04.677Z,88.14
2023-03-13T05:26:57.474Z,88.39
2023-03-13T05:29:52.168Z,88.05
2023-03-13T05:32:41.780Z,87.57
2023-03-13T05:35:35.098Z,87.29
2023-03-13T05:38:39.810Z,87.14
2023-03-13T05:41:44.411Z,87.03
2023-03-13T05:44:37.492Z,86.67
2023-03-13T05:47:24.522Z,86.54
2023-03-13T05:50:13.065Z,86.37
2023-03-13T05:53:15.425Z,86.34
2023-03-13T05:56:24.485Z,86.94
2023-03-13T05:59:07.967Z,87.61
2023-03-13T06:01:55.257Z,87.55
2023-03-13T06:04:42.720Z,87.97
2023-03-13T06:07:16.775Z,88.05
2023-03-13T06:09:51.696Z,88.19
2023-03-13T06:12:24.948Z,88.04
2023-03-13T06:14:57.506Z,87.98
2023-03-13T06:17:50.756Z,88.17
2023-03-13T06:20:23.779Z,88.61
2023-03-13T06:22:56.209Z,89.00
2023-03-13T06:25:28.848Z,89.43
2023-03-13T06:28:01.435Z,89.22
2023-03-13T06:30:33.894Z,89.33
2023-03-13T06:33:06.624Z,88.74
2023-03-13T06:35:53.392Z,88.67
2023-03-13T06:38:28.956Z,88.88
2023-03-13T06:41:01.835Z,88.93
2023-03-13T06:43:35.143Z,89.45
2023-03-13T06:46:08.741Z,89.39
2023-03-13T06:48:41.143Z,89.83
2023-03-13T06:51:16.618Z,89.42
2023-03-13T06:53:53.036Z,89.85
2023-03-13T06:56:26.039Z,90.64
2023-03-13T06:58:59.958Z,90.52
2023-03-13T07:01:33.044Z,90.02
2023-03-13T07:04:05.652Z,90.00
2023-03-13T07:06:38.355Z,90.16
2023-03-13T07:09:11.717Z,90.61
2023-03-13T07:11:44.130Z,90.67
2023-03-13T07:14:17.904Z,90.89
2023-03-13T07:16:50.545Z,90.61
2023-03-13T07:19:23.348Z,90.70
2023-03-13T07:21:57.048Z,90.60
2023-03-13T07:24:29.586Z,90.02
2023-03-13T07:27:07.617Z,90.04
2023-03-13T07:29:40.532Z,89.93
2023-03-13T07:32:12.906Z,89.44
2023-03-13T07:34:45.832Z,90.17
2023-03-13T07:37:19.421Z,89.97
2023-03-13T07:39:52.190Z,89.71
2023-03-13T07:42:24.587Z,89.10
2023-03-13T07:44:57.948Z,89.17
2023-03-13T07:47:30.353Z,89.12
2023-03-13T07:50:02.968Z,88.90
2023-03-13T07:52:35.426Z,88.72
2023-03-13T07:55:08.698Z,89.33
2023-03-13T07:57:41.099Z,89.49
2023-03-13T08:00:18.759Z,89.48
2023-03-13T08:02:51.155Z,89.56
2023-03-13T08:05:23.758Z,89.57
2023-03-13T08:07:56.381Z,89.13
2023-03-13T08:10:29.070Z,89.02
2023-03-13T08:13:01.536Z,88.86
2023-03-13T08:15:35.441Z,88.62
2023-03-13T08:18:08.280Z,88.72
2023-03-13T08:20:40.710Z,88.99
2023-03-13T08:23:13.269Z,88.60
2023-03-13T08:25:45.800Z,88.16
2023-03-13T08:28:18.190Z,88.32
2023-03-13T08:30:50.756Z,87.85
2023-03-13T08:33:23.248Z,87.98
2023-03-13T08:35:55.790Z,87.15
2023-03-13T08:38:28.644Z,86.97
2023-03-13T08:41:01.310Z,86.64
2023-03-13T08:43:33.974Z,86.48
2023-03-13T08:46:07.349Z,86.07
2023-03-13T08:48:39.804Z,85.94
2023-03-13T08:51:14.330Z,85.62
2023-03-13T08:53:47.372Z,86.32
2023-03-13T08:56:21.199Z,86.54
2023-03-13T08:58:54.833Z,86.89
2023-03-13T09:01:29.963Z,87.05
2023-03-13T09:04:04.455Z,87.95
2023-03-13T09:06:39.288Z,87.23
2023-03-13T09:09:14.486Z,87.46
2023-03-13T09:11:47.243Z,87.90
2023-03-13T09:14:19.668Z,87.48
2023-03-13T09:16:52.207Z,86.23
2023-03-13T09:19:24.697Z,85.99
2023-03-13T09:21:57.169Z,86.49
2023-03-13T09:24:31.273Z,86.68
2023-03-13T09:27:03.987Z,86.55
2023-03-13T09:29:40.045Z,86.75
2023-03-13T09:32:12.916Z,86.40
2023-03-13T09:34:45.432Z,85.95
2023-03-13T09:37:17.977Z,86.21
2023-03-13T09:39:51.316Z,86.33
2023-03-13T09:42:37.123Z,86.71
2023-03-13T09:45:15.318Z,87.40
2023-03-13T09:47:51.412Z,87.00
2023-03-13T09:50:28.737Z,87.15
2023-03-13T09:53:07.417Z,88.09
2023-03-13T09:55:43.139Z,87.79
2023-03-13T09:58:20.502Z,87.62
2023-03-13T10:01:00.204Z,87.86
2023-03-13T10:03:40.189Z,87.51
2023-03-13T10:06:19.602Z,86.92
2023-03-13T10:08:52.906Z,86.91
2023-03-13T10:11:31.130Z,86.67
2023-03-13T10:14:19.316Z,86.84
2023-03-13T10:16:56.373Z,87.44
2023-03-13T10:19:37.845Z,87.91
2023-03-13T10:22:16.712Z,88.52
2023-03-13T10:24:56.038Z,88.62
2023-03-13T10:27:28.857Z,89.06
2023-03-13T10:30:01.283Z,89.09
2023-03-13T10:32:34.138Z,88.96
2023-03-13T10:35:08.245Z,89.55
2023-03-13T10:37:45.839Z,90.28
2023-03-13T10:40:25.794Z,90.96
2023-03-13T10:43:06.509Z,91.80
2023-03-13T10:45:40.284Z,92.00
2023-03-13T10:48:20.254Z,92.88
2023-03-13T10:50:54.853Z,91.95
2023-03-13T10:53:34.359Z,92.18
2023-03-13T10:56:13.424Z,92.50
2023-03-13T10:58:49.015Z,92.75
2023-03-13T11:01:25.506Z,93.38
2023-03-13T11:04:01.339Z,93.46
2023-03-13T11:06:35.717Z,93.79
2023-03-13T11:09:14.794Z,93.72
2023-03-13T11:11:52.719Z,94.49
2023-03-13T11:14:27.204Z,94.96
2023-03-13T11:17:01.946Z,96.37
2023-03-13T11:19:43.770Z,97.31
2023-03-13T11:22:47.891Z,97.21
2023-03-13T11:25:28.978Z,97.01
2023-03-13T11:28:21.741Z,97.49
2023-03-13T11:31:04.776Z,98.48
2023-03-13T11:33:53.242Z,100.00
2023-03-13T11:36:32.671Z,100.00
2023-03-13T11:39:22.972Z,99.99
2023-03-13T11:42:05.273Z,99.97
2023-03-13T11:44:49.702Z,100.00
2023-03-13T11:47:35.988Z,100.00
2023-03-13T11:50:27.716Z,100.00
2023-03-13T11:53:23.355Z,100.00
2023-03-13T11:56:07.560Z,100.00
2023-03-13T11:58:52.081Z,100.00
2023-03-13T12:01:28.959Z,100.00
2023-03-13T12:04:06.434Z,100.00
2023-03-13T12:06:43.020Z,100.00
2023-03-13T12:09:23.131Z,100.00
2023-03-13T12:12:03.635Z,100.00
2023-03-13T12:14:39.775Z,100.00
2023-03-13T12:17:17.236Z,100.00
2023-03-13T12:19:55.143Z,100.00
2023-03-13T12:22:39.083Z,100.00
2023-03-13T12:25:19.367Z,100.00
2023-03-13T12:27:57.919Z,100.00
2023-03-13T12:30:39.385Z,100.00
2023-03-13T12:33:24.679Z,100.00
2023-03-13T12:36:03.984Z,100.00
2023-03-13T12:38:42.432Z,100.00
2023-03-13T12:41:25.720Z,100.00
2023-03-13T12:44:08.433Z,100.00
2023-03-13T12:46:47.346Z,100.00
2023-03-13T12:49:47.610Z,100.00
2023-03-13T12:52:49.857Z,100.00
2023-03-13T12:55:48.150Z,100.00
2023-03-13T12:58:31.229Z,100.00
2023-03-13T13:01:08.202Z,100.00
2023-03-13T13:03:46.638Z,100.00
2023-03-13T13:06:19.751Z,100.00
2023-03-13T13:09:09.517Z,100.00
2023-03-13T13:11:52.426Z,100.00
2023-03-13T13:15:04.047Z,100.00
2023-03-13T13:17:49.061Z,100.00
2023-03-13T13:20:34.149Z,100.00
2023-03-13T13:23:28.448Z,100.00
2023-03-13T13:26:50.144Z,100.00
2023-03-13T13:29:59.145Z,100.00
2023-03-13T13:32:40.715Z,100.00
2023-03-13T13:35:34.550Z,100.00
2023-03-13T13:38:34.472Z,100.00
2023-03-13T13:41:22.018Z,100.00
2023-03-13T13:44:25.075Z,100.00
2023-03-13T13:47:02.059Z,100.00
2023-03-13T13:49:58.060Z,100.00
2023-03-13T13:52:44.037Z,100.00
2023-03-13T13:55:46.946Z,100.00
2023-03-13T13:58:25.765Z,100.00
2023-03-13T14:01:02.769Z,100.00
2023-03-13T14:03:42.242Z,100.00
2023-03-13T14:06:22.571Z,100.00
2023-03-13T14:08:58.155Z,100.00
2023-03-13T14:11:35.737Z,100.00
2023-03-13T14:14:18.620Z,100.00
2023-03-13T14:16:52.793Z,100.00
2023-03-13T14:19:31.186Z,99.99
2023-03-13T14:22:06.601Z,99.96
2023-03-13T14:24:39.592Z,99.89
2023-03-13T14:27:21.712Z,99.06
2023-03-13T14:30:09.216Z,98.45
2023-03-13T14:32:42.162Z,98.33
2023-03-13T14:35:19.423Z,97.96
2023-03-13T14:37:54.578Z,98.10
2023-03-13T14:40:32.564Z,97.42
2023-03-13T14:43:05.967Z,97.13
2023-03-13T14:45:39.179Z,96.72
2023-03-13T14:48:20.318Z,96.32
2023-03-13T14:51:05.417Z,95.99
2023-03-13T14:53:59.308Z,95.29
2023-03-13T14:56:34.828Z,95.08
2023-03-13T14:59:16.859Z,95.07
2023-03-13T15:01:59.156Z,95.11
2023-03-13T15:04:53.323Z,95.34
2023-03-13T15:07:27.191Z,95.84
2023-03-13T15:10:00.893Z,94.99
2023-03-13T15:12:43.648Z,94.71
2023-03-13T15:15:16.605Z,93.60
2023-03-13T15:17:49.393Z,92.73
2023-03-13T15:20:23.180Z,91.79
2023-03-13T15:22:55.700Z,90.90
2023-03-13T15:25:28.337Z,90.20
2023-03-13T15:28:02.820Z,89.71
2023-03-13T15:30:33.984Z,89.77
2023-03-13T15:33:06.497Z,89.41
2023-03-13T15:35:39.307Z,89.60
2023-03-13T15:38:16.399Z,89.20
2023-03-13T15:40:49.962Z,88.90
2023-03-13T15:43:23.935Z,88.49
2023-03-13T15:45:56.742Z,88.24
2023-03-13T15:48:31.345Z,87.87
2023-03-13T15:51:04.803Z,88.32
2023-03-13T15:53:37.949Z,88.15
2023-03-13T15:56:16.683Z,87.42
2023-03-13T15:58:51.254Z,87.27
2023-03-13T16:01:23.331Z,87.34
2023-03-13T16:03:56.573Z,87.18
2023-03-13T16:06:31.604Z,87.32
2023-03-13T16:09:07.022Z,87.48
2023-03-13T16:11:39.773Z,87.04
2023-03-13T16:14:12.219Z,86.54
2023-03-13T16:16:45.412Z,86.84
2023-03-13T16:19:18.075Z,86.74
2023-03-13T16:21:52.765Z,86.70
2023-03-13T16:24:25.512Z,85.96
2023-03-13T16:26:58.204Z,86.01
2023-03-13T16:29:31.129Z,85.80
2023-03-13T16:32:04.167Z,85.85
2023-03-13T16:34:36.818Z,85.63
2023-03-13T16:37:16.649Z,85.60
2023-03-13T16:39:50.796Z,85.54
2023-03-13T16:42:23.347Z,85.28
2023-03-13T16:44:56.108Z,85.27
2023-03-13T16:47:31.761Z,85.50
2023-03-13T16:50:04.517Z,86.06
2023-03-13T16:52:37.500Z,86.65
2023-03-13T16:55:11.457Z,86.83
2023-03-13T16:57:44.083Z,86.68
2023-03-13T17:00:23.875Z,86.37
2023-03-13T17:02:57.741Z,86.12
2023-03-13T17:05:30.409Z,85.67
2023-03-13T17:08:04.053Z,85.56
2023-03-13T17:10:36.566Z,85.46
2023-03-13T17:13:09.073Z,85.75
2023-03-13T17:15:41.717Z,85.75
2023-03-13T17:18:14.984Z,85.42
2023-03-13T17:20:48.493Z,85.53
2023-03-13T17:23:21.212Z,85.63
2023-03-13T17:25:53.903Z,85.67
2023-03-13T17:28:26.438Z,86.04
2023-03-13T17:30:59.185Z,85.88
2023-03-13T17:33:32.062Z,86.05
2023-03-13T17:36:07.589Z,86.03
2023-03-13T17:38:40.139Z,85.76
2023-03-13T17:41:15.107Z,85.90
2023-03-13T17:43:48.200Z,85.92
2023-03-13T17:46:23.856Z,86.38
2023-03-13T17:48:56.943Z,86.23
2023-03-13T17:51:32.197Z,86.51
2023-03-13T17:54:05.343Z,86.62
2023-03-13T17:56:41.237Z,86.69
2023-03-13T17:59:16.784Z,86.79
2023-03-13T18:01:49.791Z,86.56
2023-03-13T18:04:22.701Z,86.53
2023-03-13T18:06:55.138Z,86.61
2023-03-13T18:09:27.648Z,86.59
2023-03-13T18:12:00.126Z,86.49
2023-03-13T18:14:32.914Z,86.27
2023-03-13T18:17:16.411Z,86.39
2023-03-13T18:19:50.218Z,86.47
2023-03-13T18:22:24.787Z,86.57
2023-03-13T18:24:58.168Z,86.21
2023-03-13T18:27:30.799Z,86.26
2023-03-13T18:30:03.679Z,86.04
2023-03-13T18:32:36.732Z,85.63
2023-03-13T18:35:11.154Z,85.70
2023-03-13T18:37:45.144Z,85.35
2023-03-13T18:40:24.542Z,85.56
2023-03-13T18:42:57.332Z,85.39
2023-03-13T18:45:29.924Z,85.48
2023-03-13T18:48:02.409Z,85.64
2023-03-13T18:50:35.305Z,85.77
2023-03-13T18:53:08.046Z,85.78
2023-03-13T18:55:40.691Z,85.32
2023-03-13T18:58:14.744Z,85.14
2023-03-13T19:00:47.525Z,84.74
2023-03-13T19:03:21.814Z,84.87
2023-03-13T19:05:55.258Z,84.92
2023-03-13T19:08:27.912Z,85.09
2023-03-13T19:11:00.787Z,84.83
2023-03-13T19:13:38.380Z,84.68
2023-03-13T19:16:17.065Z,84.93
2023-03-13T19:18:51.694Z,85.09
2023-03-13T19:21:26.436Z,84.98
2023-03-13T19:23:58.635Z,84.90
2023-03-13T19:26:34.626Z,85.17
2023-03-13T19:29:14.068Z,84.92
2023-03-13T19:31:47.237Z,85.03
2023-03-13T19:34:20.536Z,85.18
2023-03-13T19:36:54.061Z,84.86
2023-03-13T19:39:27.353Z,84.96
2023-03-13T19:42:00.982Z,84.74
2023-03-13T19:44:37.190Z,84.86
2023-03-13T19:47:15.640Z,84.75
2023-03-13T19:49:51.101Z,84.73
2023-03-13T19:52:25.368Z,84.74
2023-03-13T19:55:05.177Z,84.90
2023-03-13T19:57:38.517Z,85.05
2023-03-13T20:00:19.834Z,85.01
2023-03-13T20:02:55.051Z,85.04
2023-03-13T20:05:28.544Z,84.84
2023-03-13T20:08:01.447Z,85.03
2023-03-13T20:10:34.359Z,85.16
2023-03-13T20:13:06.876Z,85.46
2023-03-13T20:15:39.654Z,85.67
2023-03-13T20:18:12.258Z,85.81
2023-03-13T20:20:44.674Z,85.88
2023-03-13T20:23:17.395Z,85.52
2023-03-13T20:25:49.924Z,85.60
2023-03-13T20:28:22.447Z,85.57
2023-03-13T20:30:57.139Z,85.57
2023-03-13T20:33:28.036Z,85.42
2023-03-13T20:36:02.991Z,85.52
2023-03-13T20:38:36.482Z,85.12
2023-03-13T20:41:11.856Z,85.12
2023-03-13T20:43:44.788Z,84.96
2023-03-13T20:46:17.256Z,84.75
2023-03-13T20:48:50.230Z,84.71
2023-03-13T20:51:22.628Z,84.35
2023-03-13T20:53:55.183Z,83.84
2023-03-13T20:56:28.464Z,83.62
2023-03-13T20:59:02.041Z,83.79
2023-03-13T21:01:35.152Z,83.51
2023-03-13T21:04:07.973Z,83.56
2023-03-13T21:06:40.605Z,83.25
2023-03-13T21:09:13.991Z,82.97
2023-03-13T21:11:46.860Z,83.45
2023-03-13T21:14:19.464Z,83.36
2023-03-13T21:16:52.748Z,83.34
2023-03-13T21:19:25.346Z,83.11
2023-03-13T21:21:58.021Z,82.64
2023-03-13T21:24:30.784Z,82.50
2023-03-13T21:27:03.301Z,82.78
2023-03-13T21:29:36.153Z,82.14
2023-03-13T21:32:09.325Z,82.25
2023-03-13T21:34:43.409Z,82.71
2023-03-13T21:37:17.823Z,82.47
2023-03-13T21:39:53.378Z,82.10
2023-03-13T21:42:25.880Z,81.82
2023-03-13T21:44:59.222Z,81.57
2023-03-13T21:47:36.644Z,81.28
2023-03-13T21:50:12.050Z,81.27
2023-03-13T21:52:45.623Z,81.01
2023-03-13T21:55:18.204Z,80.88
2023-03-13T21:57:50.667Z,80.58
2023-03-13T22:00:25.649Z,80.37
2023-03-13T22:02:58.337Z,80.02
2023-03-13T22:05:30.883Z,79.78
2023-03-13T22:08:03.721Z,79.40
2023-03-13T22:10:38.049Z,79.64
2023-03-13T22:13:12.118Z,79.47
2023-03-13T22:15:46.710Z,79.38
2023-03-13T22:18:17.693Z,79.32
2023-03-13T22:20:50.385Z,79.40
2023-03-13T22:23:22.883Z,79.35
2023-03-13T22:25:58.142Z,79.58
2023-03-13T22:28:30.812Z,79.19
2023-03-13T22:31:05.245Z,79.19
2023-03-13T22:33:38.155Z,78.96
2023-03-13T22:36:12.840Z,79.23
2023-03-13T22:38:45.338Z,79.19
2023-03-13T22:41:19.714Z,79.34
2023-03-13T22:43:52.086Z,79.03
2023-03-13T22:46:24.610Z,78.87
2023-03-13T22:48:57.009Z,78.89
2023-03-13T22:51:29.645Z,79.00
2023-03-13T22:54:02.053Z,78.65
2023-03-13T22:56:34.758Z,78.23
2023-03-13T22:59:07.751Z,78.54
2023-03-13T23:01:40.221Z,78.95
2023-03-13T23:04:13.077Z,78.97
2023-03-13T23:06:45.533Z,79.09
2023-03-13T23:09:18.119Z,78.88
2023-03-13T23:11:51.050Z,78.89
2023-03-13T23:14:23.565Z,78.71
2023-03-13T23:16:56.224Z,79.00
2023-03-13T23:19:28.985Z,78.59
2023-03-13T23:22:01.546Z,78.86
2023-03-13T23:24:34.114Z,78.59
2023-03-13T23:27:06.886Z,78.39
2023-03-13T23:29:39.511Z,78.58
2023-03-13T23:32:12.100Z,78.96
2023-03-13T23:34:44.780Z,78.80
2023-03-13T23:37:17.718Z,78.40
2023-03-13T23:39:52.945Z,78.85
2023-03-13T23:42:25.922Z,79.12
2023-03-13T23:44:58.549Z,78.92
2023-03-13T23:47:31.172Z,78.84
2023-03-13T23:50:05.348Z,79.20
2023-03-13T23:52:38.751Z,79.64
2023-03-13T23:55:12.522Z,79.40
2023-03-13T23:57:44.940Z,79.83
